Time;durP1;ratioP1;P1;durP2;ratioP2;P2;SDS_P1;SDS_P2;PMS_P1;PMS_P2;Temp;Humidity;BMP_temperature;BMP_pressure;BME280_temperature;BME280_humidity;BME280_pressure;Samples;Min_cycle;Max_cycle;Signal;HPM_P1;HPM_P2
2021/06/30 00:01:48;;;;;;;18.83;17.03;;;20.90;99.90;;;;;;5075637;28;20491;-67
2021/06/30 00:04:16;;;;;;;19.13;17.33;;;20.90;99.90;;;;;;5075480;28;20458;-67
2021/06/30 00:06:42;;;;;;;19.77;17.63;;;20.80;99.90;;;;;;5075503;28;20770;-67
2021/06/30 00:09:09;;;;;;;19.33;17.43;;;20.80;99.90;;;;;;5075193;28;20454;-67
2021/06/30 00:11:36;;;;;;;19.83;18.10;;;20.80;99.90;;;;;;5075749;28;20462;-67
2021/06/30 00:14:02;;;;;;;19.80;17.80;;;20.80;99.90;;;;;;5074963;28;20488;-67
2021/06/30 00:16:32;;;;;;;20.30;17.70;;;20.90;99.90;;;;;;5075330;28;20461;-67
2021/06/30 00:18:59;;;;;;;21.10;18.90;;;20.90;99.90;;;;;;5074915;28;20458;-67
2021/06/30 00:21:27;;;;;;;19.03;17.33;;;20.90;99.90;;;;;;5075234;28;20476;-67
2021/06/30 00:23:54;;;;;;;20.20;18.40;;;20.80;99.90;;;;;;5075373;28;20798;-66
2021/06/30 00:26:21;;;;;;;20.50;18.53;;;20.70;99.90;;;;;;5075063;28;20454;-68
2021/06/30 00:28:48;;;;;;;21.70;19.60;;;20.70;99.90;;;;;;5075123;28;20486;-68
2021/06/30 00:31:16;;;;;;;21.20;19.30;;;20.70;99.90;;;;;;5074617;28;20470;-69
2021/06/30 00:33:43;;;;;;;21.90;19.80;;;20.70;99.90;;;;;;5074601;28;20478;-67
2021/06/30 00:36:10;;;;;;;19.90;18.00;;;20.70;99.90;;;;;;5075161;28;20462;-68
2021/06/30 00:38:38;;;;;;;21.43;18.97;;;20.70;99.90;;;;;;5074996;28;20903;-68
2021/06/30 00:41:05;;;;;;;21.40;19.40;;;20.70;99.90;;;;;;5074787;28;20917;-67
2021/06/30 00:43:32;;;;;;;21.43;19.40;;;20.80;99.90;;;;;;5075159;28;20520;-66
2021/06/30 00:45:59;;;;;;;20.80;19.00;;;20.80;99.90;;;;;;5074921;28;20458;-67
2021/06/30 00:48:26;;;;;;;20.63;18.83;;;20.80;99.90;;;;;;5074426;28;20474;-67
2021/06/30 00:50:52;;;;;;;22.23;20.00;;;20.80;99.90;;;;;;5074752;28;20480;-67
2021/06/30 00:53:19;;;;;;;21.63;19.33;;;20.80;99.90;;;;;;5074696;28;20458;-67
2021/06/30 00:55:51;;;;;;;21.80;19.50;;;20.80;99.90;;;;;;5074502;28;20462;-67
2021/06/30 00:58:18;;;;;;;22.83;20.63;;;20.80;99.90;;;;;;5074613;28;20449;-67
2021/06/30 01:00:45;;;;;;;21.63;19.47;;;20.80;99.90;;;;;;5074286;28;20918;-68
2021/06/30 01:03:12;;;;;;;21.87;19.83;;;20.80;99.90;;;;;;5074360;28;20745;-68
2021/06/30 01:05:39;;;;;;;21.50;19.50;;;20.90;99.90;;;;;;5074696;28;20465;-68
2021/06/30 01:08:06;;;;;;;21.33;19.23;;;20.90;99.90;;;;;;5074886;28;20770;-68
2021/06/30 01:10:33;;;;;;;22.37;20.10;;;20.80;99.90;;;;;;5074341;28;20467;-68
2021/06/30 01:13:04;;;;;;;20.97;18.60;;;20.80;99.90;;;;;;5074409;28;20828;-68
2021/06/30 01:15:31;;;;;;;22.73;20.53;;;20.80;99.90;;;;;;5074924;28;20462;-68
2021/06/30 01:17:58;;;;;;;20.70;18.50;;;20.80;99.90;;;;;;5074235;28;20973;-68
2021/06/30 01:20:25;;;;;;;20.97;18.73;;;20.80;99.90;;;;;;5074637;28;20465;-68
2021/06/30 01:23:06;;;;;;;21.43;19.53;;;20.80;99.90;;;;;;5074370;28;20450;-68
2021/06/30 01:25:33;;;;;;;21.47;19.37;;;20.80;99.90;;;;;;5074496;28;20454;-68
2021/06/30 01:28:00;;;;;;;21.80;19.70;;;20.80;99.90;;;;;;5074175;28;20462;-68
2021/06/30 01:30:27;;;;;;;22.77;20.13;;;20.90;99.90;;;;;;5073733;28;20465;-68
2021/06/30 01:32:53;;;;;;;21.60;19.37;;;20.90;99.90;;;;;;5074247;28;20469;-68
2021/06/30 01:35:22;;;;;;;23.37;20.97;;;20.90;99.90;;;;;;5073989;28;20478;-68
2021/06/30 01:37:49;;;;;;;22.50;20.40;;;20.90;99.90;;;;;;5074405;28;20934;-68
2021/06/30 01:40:19;;;;;;;21.70;19.50;;;20.90;99.90;;;;;;5074380;28;20538;-68
2021/06/30 01:42:47;;;;;;;21.33;19.33;;;20.90;99.90;;;;;;5076550;28;20540;-68
2021/06/30 01:45:14;;;;;;;21.77;19.67;;;20.90;99.90;;;;;;5078710;28;20515;-67
2021/06/30 01:47:41;;;;;;;20.63;18.67;;;20.90;99.90;;;;;;5077352;28;20477;-68
2021/06/30 01:50:09;;;;;;;21.20;19.30;;;20.90;99.90;;;;;;5077573;28;20473;-67
2021/06/30 01:52:36;;;;;;;20.93;19.03;;;20.90;99.90;;;;;;5078103;28;20454;-68
2021/06/30 01:55:03;;;;;;;24.10;21.30;;;20.90;99.90;;;;;;5077719;28;20493;-68
2021/06/30 01:57:31;;;;;;;25.37;22.83;;;20.90;99.90;;;;;;5078039;28;20737;-67
2021/06/30 01:59:58;;;;;;;23.73;21.53;;;20.80;99.90;;;;;;5078225;28;20473;-68
2021/06/30 02:02:28;;;;;;;24.30;21.70;;;20.80;99.90;;;;;;5077752;28;20454;-68
2021/06/30 02:05:02;;;;;;;22.53;20.33;;;20.80;99.90;;;;;;5078849;28;20461;-68
2021/06/30 02:07:31;;;;;;;23.30;20.97;;;20.80;99.90;;;;;;5077800;28;20449;-68
2021/06/30 02:09:58;;;;;;;23.03;20.73;;;20.80;99.90;;;;;;5077314;28;20781;-68
2021/06/30 02:12:24;;;;;;;23.27;21.17;;;20.80;99.90;;;;;;5077751;28;20774;-67
2021/06/30 02:14:53;;;;;;;25.10;22.37;;;20.80;99.90;;;;;;5077509;28;20823;-68
2021/06/30 02:17:20;;;;;;;24.60;22.20;;;20.80;99.90;;;;;;5078098;28;20450;-68
2021/06/30 02:19:48;;;;;;;25.57;22.77;;;20.70;99.90;;;;;;5078256;28;20918;-67
2021/06/30 02:22:15;;;;;;;27.60;24.03;;;20.70;99.90;;;;;;5077479;28;20549;-68
2021/06/30 02:24:42;;;;;;;27.67;25.10;;;20.60;99.90;;;;;;5077661;28;20908;-67
2021/06/30 02:27:09;;;;;;;28.47;25.10;;;20.50;99.90;;;;;;5077372;28;20464;-67
2021/06/30 02:29:36;;;;;;;27.53;25.00;;;20.40;99.90;;;;;;5077114;28;20473;-67
2021/06/30 02:32:04;;;;;;;26.80;24.10;;;20.40;99.90;;;;;;5077009;28;20446;-68
2021/06/30 02:34:31;;;;;;;27.50;24.57;;;20.40;99.90;;;;;;5077253;28;20478;-67
2021/06/30 02:36:58;;;;;;;29.17;26.23;;;20.40;99.90;;;;;;5077022;28;20454;-67
2021/06/30 02:39:24;;;;;;;28.03;25.23;;;20.30;99.90;;;;;;5077413;28;20458;-67
2021/06/30 02:41:51;;;;;;;32.37;23.70;;;20.30;99.90;;;;;;5077277;28;20458;-68
2021/06/30 02:44:18;;;;;;;28.03;25.17;;;20.30;99.90;;;;;;5077533;28;20876;-68
2021/06/30 02:46:48;;;;;;;26.43;23.70;;;20.30;99.90;;;;;;5077942;28;20462;-68
2021/06/30 02:49:17;;;;;;;27.17;24.53;;;20.40;99.90;;;;;;5079808;28;20443;-68
2021/06/30 02:51:44;;;;;;;30.30;24.70;;;20.30;99.90;;;;;;5078654;28;20515;-68
2021/06/30 02:54:10;;;;;;;27.93;24.93;;;20.40;99.90;;;;;;5076628;28;20480;-68
2021/06/30 02:56:37;;;;;;;30.80;25.00;;;20.40;99.90;;;;;;5077040;28;20458;-68
2021/06/30 02:59:04;;;;;;;26.37;23.77;;;20.40;99.90;;;;;;5075983;28;20454;-68
2021/06/30 03:01:31;;;;;;;28.97;25.93;;;20.50;99.90;;;;;;5076443;28;20458;-68
2021/06/30 03:03:57;;;;;;;28.13;25.33;;;20.50;99.90;;;;;;5076471;28;20454;-68
2021/06/30 03:06:26;;;;;;;27.13;23.90;;;20.50;99.90;;;;;;5076680;28;20461;-69
2021/06/30 03:08:53;;;;;;;28.50;25.60;;;20.50;99.90;;;;;;5076997;28;20450;-68
2021/06/30 03:11:20;;;;;;;28.33;25.53;;;20.50;99.90;;;;;;5076888;28;20758;-68
2021/06/30 03:13:49;;;;;;;29.40;25.60;;;20.50;99.90;;;;;;5076475;28;20466;-68
2021/06/30 03:16:16;;;;;;;29.30;25.87;;;20.50;99.90;;;;;;5076173;28;20514;-68
2021/06/30 03:18:43;;;;;;;30.50;27.30;;;20.50;99.90;;;;;;5076840;28;20462;-68
2021/06/30 03:21:10;;;;;;;28.23;24.90;;;20.50;99.90;;;;;;5076360;28;20458;-68
2021/06/30 03:23:38;;;;;;;25.90;23.30;;;20.50;99.90;;;;;;5077567;28;20458;-68
2021/06/30 03:26:05;;;;;;;24.90;22.40;;;20.40;99.90;;;;;;5076151;28;20450;-67
2021/06/30 03:28:32;;;;;;;25.13;22.40;;;20.40;99.90;;;;;;5075515;28;20907;-68
2021/06/30 03:30:58;;;;;;;24.60;21.70;;;20.30;99.90;;;;;;5075226;28;20457;-68
2021/06/30 03:33:25;;;;;;;26.20;23.50;;;20.30;99.90;;;;;;5076341;28;20465;-68
2021/06/30 03:35:52;;;;;;;27.10;23.53;;;20.30;99.90;;;;;;5075908;28;20478;-67
2021/06/30 03:38:19;;;;;;;27.47;23.43;;;20.30;99.90;;;;;;5075639;28;20465;-68
2021/06/30 03:40:48;;;;;;;24.90;22.50;;;20.30;99.90;;;;;;5076071;28;20495;-67
2021/06/30 03:43:15;;;;;;;26.03;23.33;;;20.30;99.90;;;;;;5076072;28;20454;-67
2021/06/30 03:45:43;;;;;;;25.30;22.70;;;20.20;99.90;;;;;;5075795;28;20790;-68
2021/06/30 03:48:10;;;;;;;24.67;22.27;;;20.20;99.90;;;;;;5074971;28;20490;-68
2021/06/30 03:50:37;;;;;;;25.63;23.10;;;20.10;99.90;;;;;;5074972;28;20564;-67
2021/06/30 03:53:04;;;;;;;26.83;24.13;;;20.10;99.90;;;;;;5075810;28;20914;-68
2021/06/30 03:55:30;;;;;;;25.03;22.63;;;20.10;99.90;;;;;;5075435;28;20486;-67
2021/06/30 03:57:58;;;;;;;22.90;20.50;;;20.10;99.90;;;;;;5075540;28;20466;-67
2021/06/30 04:00:26;;;;;;;23.77;21.47;;;20.10;99.90;;;;;;5075068;28;20798;-67
2021/06/30 04:02:54;;;;;;;23.57;21.27;;;20.10;99.90;;;;;;5075490;28;20942;-67
2021/06/30 04:05:20;;;;;;;22.30;20.10;;;20.10;99.90;;;;;;5074348;28;20821;-68
2021/06/30 04:07:47;;;;;;;23.10;20.97;;;20.10;99.90;;;;;;5075086;28;20757;-68
2021/06/30 04:10:16;;;;;;;22.40;20.10;;;20.10;99.90;;;;;;5075159;28;20458;-67
2021/06/30 04:12:42;;;;;;;21.90;19.70;;;20.10;99.90;;;;;;5075207;28;20458;-67
2021/06/30 04:15:12;;;;;;;22.60;20.43;;;20.10;99.90;;;;;;5074585;28;20474;-67
2021/06/30 04:17:39;;;;;;;22.20;20.10;;;20.20;99.90;;;;;;5074974;28;20465;-67
2021/06/30 04:20:08;;;;;;;23.67;21.37;;;20.20;99.90;;;;;;5074757;28;20457;-67
2021/06/30 04:22:35;;;;;;;23.37;21.23;;;20.30;99.90;;;;;;5074961;28;20454;-68
2021/06/30 04:25:02;;;;;;;20.30;18.30;;;20.30;99.90;;;;;;5075066;28;20481;-67
2021/06/30 04:27:29;;;;;;;21.27;19.37;;;20.30;99.90;;;;;;5074878;28;20469;-68
2021/06/30 04:29:56;;;;;;;22.10;19.90;;;20.30;99.90;;;;;;5074324;28;20933;-67
2021/06/30 04:32:28;;;;;;;23.20;20.80;;;20.30;99.90;;;;;;5075012;28;20462;-67
2021/06/30 04:34:55;;;;;;;23.83;20.07;;;20.20;99.90;;;;;;5075743;28;20473;-68
2021/06/30 04:37:21;;;;;;;21.00;18.97;;;20.20;99.90;;;;;;5075036;28;20465;-68
2021/06/30 04:39:48;;;;;;;22.47;20.10;;;20.20;99.90;;;;;;5075522;28;20458;-68
2021/06/30 04:42:15;;;;;;;23.90;20.60;;;20.20;99.90;;;;;;5075961;28;20458;-68
2021/06/30 04:44:42;;;;;;;25.07;22.57;;;20.30;99.90;;;;;;5076708;28;20454;-67
2021/06/30 04:47:08;;;;;;;25.00;22.30;;;20.30;99.90;;;;;;5076619;28;20814;-69
2021/06/30 04:49:37;;;;;;;25.17;22.50;;;20.30;99.90;;;;;;5076037;28;20458;-68
2021/06/30 04:52:06;;;;;;;23.27;21.00;;;20.30;99.90;;;;;;5075166;28;20464;-68
2021/06/30 04:54:36;;;;;;;23.30;21.10;;;20.10;99.90;;;;;;5075971;28;20446;-70
2021/06/30 04:57:03;;;;;;;25.00;22.43;;;19.90;99.90;;;;;;5075188;28;20843;-69
2021/06/30 04:59:32;;;;;;;24.80;22.30;;;19.70;99.90;;;;;;5075129;28;20794;-68
2021/06/30 05:01:59;;;;;;;27.20;24.40;;;19.70;99.90;;;;;;5074935;28;20461;-67
2021/06/30 05:04:26;;;;;;;26.70;23.90;;;19.60;99.90;;;;;;5074984;28;20473;-68
2021/06/30 05:06:54;;;;;;;26.10;23.30;;;19.60;99.90;;;;;;5074950;28;20458;-67
2021/06/30 05:09:20;;;;;;;24.57;21.97;;;19.50;99.90;;;;;;5075080;28;20459;-68
2021/06/30 05:11:47;;;;;;;25.77;22.97;;;19.50;99.90;;;;;;5075459;28;20821;-67
2021/06/30 05:14:14;;;;;;;24.83;22.33;;;19.40;99.90;;;;;;5074755;28;20469;-67
2021/06/30 05:16:40;;;;;;;25.77;23.20;;;19.40;99.90;;;;;;5076273;28;20481;-67
2021/06/30 05:19:08;;;;;;;24.60;22.13;;;19.40;99.90;;;;;;5078796;28;20457;-67
2021/06/30 05:21:35;;;;;;;22.90;20.60;;;19.40;99.90;;;;;;5078629;28;20519;-67
2021/06/30 05:24:03;;;;;;;23.97;21.67;;;19.40;99.90;;;;;;5078263;28;20458;-67
2021/06/30 05:26:30;;;;;;;22.50;20.30;;;19.40;99.90;;;;;;5078541;28;20458;-67
2021/06/30 05:28:57;;;;;;;23.40;21.20;;;19.40;99.90;;;;;;5078250;28;20799;-68
2021/06/30 05:31:23;;;;;;;22.20;19.97;;;19.40;99.90;;;;;;5078157;28;20469;-67
2021/06/30 05:33:50;;;;;;;22.00;19.90;;;19.30;99.90;;;;;;5078306;28;20480;-67
2021/06/30 05:36:17;;;;;;;21.77;19.67;;;19.30;99.90;;;;;;5077681;28;20557;-67
2021/06/30 05:38:44;;;;;;;22.83;20.63;;;19.30;99.90;;;;;;5077433;28;20454;-67
2021/06/30 05:41:12;;;;;;;24.33;22.03;;;19.30;99.90;;;;;;5078141;28;20454;-67
2021/06/30 05:43:39;;;;;;;21.37;19.33;;;19.30;99.90;;;;;;5077836;28;20454;-67
2021/06/30 05:46:06;;;;;;;22.23;20.13;;;19.30;99.90;;;;;;5078172;28;20828;-67
2021/06/30 05:48:34;;;;;;;21.87;18.80;;;19.30;99.90;;;;;;5077463;28;20478;-67
2021/06/30 05:51:01;;;;;;;21.27;19.13;;;19.30;99.90;;;;;;5077525;28;20927;-67
2021/06/30 05:53:28;;;;;;;22.13;19.93;;;19.20;99.90;;;;;;5077379;28;20943;-67
2021/06/30 05:55:55;;;;;;;21.43;19.33;;;19.30;99.90;;;;;;5077450;28;20489;-67
2021/06/30 05:58:23;;;;;;;20.40;18.40;;;19.30;99.90;;;;;;5077790;28;20468;-67
2021/06/30 06:00:50;;;;;;;19.93;18.07;;;19.20;99.90;;;;;;5077497;28;20779;-67
2021/06/30 06:03:17;;;;;;;20.50;17.97;;;19.20;99.90;;;;;;5077405;28;20531;-67
2021/06/30 06:05:44;;;;;;;19.20;17.30;;;19.20;99.90;;;;;;5077432;28;20450;-67
2021/06/30 06:08:10;;;;;;;20.00;18.10;;;19.20;99.90;;;;;;5077217;28;20465;-67
2021/06/30 06:10:37;;;;;;;21.03;17.60;;;19.10;99.90;;;;;;5077245;28;20458;-67
2021/06/30 06:13:04;;;;;;;18.70;16.90;;;19.10;99.90;;;;;;5077543;28;20461;-67
2021/06/30 06:15:32;;;;;;;18.60;16.80;;;19.10;99.90;;;;;;5077234;28;20474;-67
2021/06/30 06:17:59;;;;;;;18.40;16.43;;;19.10;99.90;;;;;;5077664;28;20789;-67
2021/06/30 06:20:26;;;;;;;18.43;16.70;;;19.10;99.90;;;;;;5077608;28;20458;-67
2021/06/30 06:22:52;;;;;;;19.53;17.73;;;19.20;99.90;;;;;;5077344;28;20783;-67
2021/06/30 06:25:19;;;;;;;18.27;16.67;;;19.20;99.90;;;;;;5077164;28;20458;-67
2021/06/30 06:27:46;;;;;;;17.10;15.50;;;19.20;99.90;;;;;;5077078;28;20469;-68
2021/06/30 06:30:14;;;;;;;17.90;16.20;;;19.20;99.90;;;;;;5077138;28;20937;-69
2021/06/30 06:32:42;;;;;;;18.50;16.80;;;19.20;99.90;;;;;;5077045;28;20461;-68
2021/06/30 06:35:10;;;;;;;18.97;17.03;;;19.20;99.90;;;;;;5076983;28;20461;-68
2021/06/30 06:37:38;;;;;;;18.27;16.47;;;19.20;99.90;;;;;;5077086;28;20507;-68
2021/06/30 06:40:06;;;;;;;17.60;16.00;;;19.10;99.90;;;;;;5077224;28;20458;-67
2021/06/30 06:42:33;;;;;;;17.83;16.17;;;19.10;99.90;;;;;;5077302;28;20450;-68
2021/06/30 06:45:00;;;;;;;16.70;15.17;;;19.10;99.90;;;;;;5077254;28;20465;-68
2021/06/30 06:47:27;;;;;;;17.40;15.80;;;19.10;99.90;;;;;;5076963;28;20838;-67
2021/06/30 06:49:55;;;;;;;18.17;16.57;;;19.10;99.90;;;;;;5077244;28;20459;-68
2021/06/30 06:52:21;;;;;;;17.87;16.00;;;19.00;99.90;;;;;;5077005;28;20462;-68
2021/06/30 06:54:48;;;;;;;18.63;16.93;;;19.00;99.90;;;;;;5076731;28;20465;-68
2021/06/30 06:57:15;;;;;;;18.60;16.80;;;19.00;99.90;;;;;;5076870;28;20489;-68
2021/06/30 06:59:42;;;;;;;20.83;18.00;;;19.00;99.90;;;;;;5076711;28;20458;-67
2021/06/30 07:02:09;;;;;;;20.00;18.10;;;19.00;99.90;;;;;;5076944;28;20458;-67
2021/06/30 07:04:35;;;;;;;20.40;18.50;;;18.90;99.90;;;;;;5077648;28;20458;-68
2021/06/30 07:07:04;;;;;;;20.13;18.07;;;19.00;99.90;;;;;;5076589;28;20875;-68
2021/06/30 07:09:30;;;;;;;19.60;17.60;;;18.90;99.90;;;;;;5077024;28;20455;-68
2021/06/30 07:11:58;;;;;;;20.17;18.27;;;18.90;99.90;;;;;;5075780;28;20473;-68
2021/06/30 07:14:24;;;;;;;19.73;17.90;;;18.90;99.90;;;;;;5077068;28;20465;-68
2021/06/30 07:16:51;;;;;;;19.13;16.70;;;18.90;99.90;;;;;;5077381;28;20478;-68
2021/06/30 07:19:18;;;;;;;18.13;16.23;;;18.90;99.90;;;;;;5077297;28;20922;-67
2021/06/30 07:21:45;;;;;;;17.50;15.70;;;18.90;99.90;;;;;;5076789;28;20523;-68
2021/06/30 07:24:13;;;;;;;17.53;15.77;;;18.90;99.90;;;;;;5076110;28;20462;-71
2021/06/30 07:26:40;;;;;;;16.67;14.63;;;18.80;99.90;;;;;;5076359;28;20450;-69
2021/06/30 07:29:09;;;;;;;17.20;15.70;;;18.80;99.90;;;;;;5075923;28;20462;-69
2021/06/30 07:31:36;;;;;;;17.20;15.40;;;18.80;99.90;;;;;;5075932;28;20501;-68
2021/06/30 07:34:03;;;;;;;19.40;17.40;;;18.80;99.90;;;;;;5076026;28;20519;-68
2021/06/30 07:36:29;;;;;;;18.00;16.20;;;18.80;99.90;;;;;;5075742;28;20560;-68
2021/06/30 07:38:56;;;;;;;17.47;15.80;;;18.80;99.90;;;;;;5075638;28;20469;-69
2021/06/30 07:41:24;;;;;;;17.20;15.60;;;18.80;99.90;;;;;;5074883;28;20468;-69
2021/06/30 07:43:51;;;;;;;17.80;16.10;;;18.90;99.90;;;;;;5075619;28;20454;-68
2021/06/30 07:46:18;;;;;;;17.63;15.83;;;18.90;99.90;;;;;;5075999;28;20454;-67
2021/06/30 07:48:44;;;;;;;16.80;15.00;;;19.00;99.90;;;;;;5075284;28;20474;-67
2021/06/30 07:51:12;;;;;;;16.97;15.37;;;19.00;99.90;;;;;;5075419;28;20484;-68
2021/06/30 07:53:40;;;;;;;16.67;14.87;;;19.00;99.90;;;;;;5075541;28;20459;-69
2021/06/30 07:56:07;;;;;;;18.60;14.40;;;19.00;99.90;;;;;;5075599;28;20486;-68
2021/06/30 07:58:35;;;;;;;17.27;15.67;;;19.00;99.90;;;;;;5075451;28;20492;-68
2021/06/30 08:01:02;;;;;;;16.43;14.90;;;19.00;99.90;;;;;;5075216;28;20459;-67
2021/06/30 08:03:28;;;;;;;15.27;13.77;;;19.00;99.90;;;;;;5075526;28;20465;-67
2021/06/30 08:05:55;;;;;;;15.57;14.07;;;19.00;99.90;;;;;;5075347;28;20465;-67
2021/06/30 08:08:22;;;;;;;15.17;13.63;;;19.00;99.90;;;;;;5075733;28;20450;-68
2021/06/30 08:10:48;;;;;;;15.77;14.17;;;19.00;99.90;;;;;;5075704;28;20454;-68
2021/06/30 08:13:15;;;;;;;14.40;13.17;;;19.00;99.90;;;;;;5075362;28;20874;-67
2021/06/30 08:15:43;;;;;;;14.30;13.00;;;19.00;99.90;;;;;;5075248;28;20454;-69
2021/06/30 08:18:10;;;;;;;13.40;12.10;;;19.00;99.90;;;;;;5075079;28;20463;-69
2021/06/30 08:20:37;;;;;;;11.93;10.93;;;19.00;99.90;;;;;;5075311;28;20584;-67
2021/06/30 08:23:04;;;;;;;11.60;10.60;;;18.90;99.90;;;;;;5075132;28;20453;-68
2021/06/30 08:25:30;;;;;;;12.70;11.50;;;18.90;99.90;;;;;;5075211;28;20461;-68
2021/06/30 08:27:59;;;;;;;13.40;12.00;;;18.90;99.90;;;;;;5075612;28;20499;-68
2021/06/30 08:30:26;;;;;;;13.40;12.20;;;18.90;99.90;;;;;;5075294;28;20663;-68
2021/06/30 08:32:54;;;;;;;12.00;10.90;;;18.90;99.90;;;;;;5075283;28;20458;-68
2021/06/30 08:35:21;;;;;;;12.73;11.53;;;18.90;99.90;;;;;;5075182;28;20468;-68
2021/06/30 08:37:48;;;;;;;12.00;11.00;;;18.90;99.90;;;;;;5075080;28;20477;-68
2021/06/30 08:40:15;;;;;;;11.83;10.83;;;18.90;99.90;;;;;;5075342;28;20465;-68
2021/06/30 08:42:44;;;;;;;11.00;9.83;;;18.90;99.90;;;;;;5074720;28;20493;-68
2021/06/30 08:45:12;;;;;;;12.80;11.60;;;18.80;99.90;;;;;;5074362;28;20931;-68
2021/06/30 08:47:41;;;;;;;11.17;10.17;;;18.80;99.90;;;;;;5074684;28;20482;-68
2021/06/30 08:50:11;;;;;;;11.10;10.10;;;18.80;99.90;;;;;;5074771;28;20465;-68
2021/06/30 08:52:39;;;;;;;12.30;11.20;;;18.80;99.90;;;;;;5074781;28;20526;-68
2021/06/30 08:55:07;;;;;;;13.40;11.97;;;18.80;99.90;;;;;;5074687;28;20934;-68
2021/06/30 08:57:37;;;;;;;12.67;11.47;;;18.80;99.90;;;;;;5074702;28;20485;-68
2021/06/30 09:00:05;;;;;;;13.17;11.30;;;18.80;99.90;;;;;;5074323;28;20545;-68
2021/06/30 09:02:32;;;;;;;12.50;11.30;;;18.80;99.90;;;;;;5074780;28;20468;-68
2021/06/30 09:05:12;;;;;;;11.90;10.90;;;18.80;99.90;;;;;;5074408;28;20465;-69
2021/06/30 09:07:41;;;;;;;12.07;10.90;;;18.80;99.90;;;;;;5074803;28;20533;-70
2021/06/30 09:10:10;;;;;;;12.50;11.30;;;18.80;99.90;;;;;;5074993;28;20473;-69
2021/06/30 09:12:38;;;;;;;11.50;10.47;;;18.80;99.90;;;;;;5074791;28;20854;-69
2021/06/30 09:15:16;;;;;;;12.60;11.40;;;18.80;99.90;;;;;;5074668;28;20907;-69
2021/06/30 09:17:45;;;;;;;11.87;10.80;;;18.80;99.90;;;;;;5074537;28;20485;-69
2021/06/30 09:20:13;;;;;;;13.73;12.43;;;18.80;99.90;;;;;;5075072;28;20879;-69
2021/06/30 09:22:47;;;;;;;12.43;11.20;;;18.80;99.90;;;;;;5074705;28;20454;-69
2021/06/30 09:25:28;;;;;;;11.43;10.43;;;18.80;99.90;;;;;;5074289;28;20867;-68
2021/06/30 09:27:55;;;;;;;12.40;11.10;;;18.90;99.90;;;;;;5074578;28;20779;-68
2021/06/30 09:30:22;;;;;;;11.13;10.00;;;18.90;99.90;;;;;;5074591;28;20454;-68
2021/06/30 09:33:04;;;;;;;11.00;10.10;;;18.90;99.90;;;;;;5074690;28;20536;-68
2021/06/30 09:35:33;;;;;;;11.57;10.53;;;18.80;99.90;;;;;;5074682;28;20454;-68
2021/06/30 09:38:31;;;;;;;11.47;10.37;;;18.80;99.90;;;;;;5083919;28;20545;-69
2021/06/30 09:40:59;;;;;;;11.40;10.40;;;18.80;99.90;;;;;;5085541;28;20557;-69
2021/06/30 09:43:28;;;;;;;9.80;8.90;;;18.80;99.90;;;;;;5083721;28;20458;-70
2021/06/30 09:45:57;;;;;;;8.67;7.87;;;18.80;99.90;;;;;;5081604;28;20458;-70
2021/06/30 09:48:32;;;;;;;7.10;6.57;;;18.80;99.90;;;;;;5083216;28;20478;-70
2021/06/30 09:51:00;;;;;;;7.77;7.10;;;18.80;99.90;;;;;;5082046;28;20541;-69
2021/06/30 09:53:39;;;;;;;10.93;8.97;;;18.80;99.90;;;;;;5081266;28;20466;-70
2021/06/30 09:56:37;;;;;;;9.60;8.70;;;18.80;99.90;;;;;;5082052;28;20442;-70
2021/06/30 09:59:24;;;;;;;10.50;9.40;;;18.80;99.90;;;;;;5081526;28;20765;-69
2021/06/30 10:01:56;;;;;;;11.20;10.20;;;18.80;99.90;;;;;;5082141;28;20453;-70
2021/06/30 10:04:30;;;;;;;11.43;10.33;;;18.80;99.90;;;;;;5083054;28;20442;-70
2021/06/30 10:06:59;;;;;;;12.50;11.40;;;18.80;99.90;;;;;;5086281;28;20504;-70
2021/06/30 10:09:28;;;;;;;12.27;11.17;;;18.80;99.90;;;;;;5087635;28;20762;-69
2021/06/30 10:12:03;;;;;;;12.73;11.57;;;18.80;99.90;;;;;;5088233;28;20454;-70
2021/06/30 10:14:31;;;;;;;12.40;11.30;;;18.80;99.90;;;;;;5087785;28;20434;-69
2021/06/30 10:16:59;;;;;;;11.57;10.20;;;18.80;99.90;;;;;;5087326;28;20528;-70
2021/06/30 10:19:25;;;;;;;11.90;10.80;;;18.80;99.90;;;;;;5086827;28;20549;-69
2021/06/30 10:21:52;;;;;;;10.67;9.77;;;18.80;99.90;;;;;;5086489;28;20469;-70
2021/06/30 10:24:20;;;;;;;11.07;9.97;;;18.70;99.90;;;;;;5086683;28;20976;-70
2021/06/30 10:26:49;;;;;;;12.07;10.97;;;18.70;99.90;;;;;;5086689;28;20473;-69
2021/06/30 10:29:17;;;;;;;12.90;11.70;;;18.80;99.90;;;;;;5087232;28;20765;-69
2021/06/30 10:31:45;;;;;;;13.93;12.73;;;18.80;99.90;;;;;;5084887;28;20786;-70
2021/06/30 10:34:14;;;;;;;12.67;11.40;;;18.80;99.90;;;;;;5083003;28;20446;-70
2021/06/30 10:36:50;;;;;;;14.97;13.47;;;18.70;99.90;;;;;;5076644;28;20477;-70
2021/06/30 10:39:18;;;;;;;12.93;11.73;;;18.70;99.90;;;;;;5077736;28;20457;-70
2021/06/30 10:41:52;;;;;;;12.80;11.70;;;18.70;99.90;;;;;;5076755;28;20470;-70
2021/06/30 10:44:20;;;;;;;14.30;12.90;;;18.70;99.90;;;;;;5077342;28;20874;-70
2021/06/30 10:46:48;;;;;;;11.60;10.53;;;18.70;99.90;;;;;;5076705;28;20450;-70
2021/06/30 10:49:23;;;;;;;11.17;10.07;;;18.60;99.90;;;;;;5077184;28;20783;-70
2021/06/30 10:51:52;;;;;;;12.43;11.33;;;18.60;99.90;;;;;;5077029;28;20906;-70
2021/06/30 10:54:44;;;;;;;13.37;12.07;;;18.60;99.90;;;;;;5077114;28;20462;-70
2021/06/30 10:57:27;;;;;;;11.63;10.63;;;18.60;99.90;;;;;;5076303;28;20488;-69
2021/06/30 11:00:12;;;;;;;12.63;11.53;;;18.60;99.90;;;;;;5076895;28;20453;-71
2021/06/30 11:02:39;;;;;;;15.10;13.57;;;18.60;99.90;;;;;;5076660;28;20464;-70
2021/06/30 11:05:39;;;;;;;14.07;12.73;;;18.60;99.90;;;;;;5077463;28;20454;-69
2021/06/30 11:08:41;;;;;;;14.90;13.60;;;18.60;99.90;;;;;;5077621;28;20496;-70
2021/06/30 11:11:12;;;;;;;16.07;14.57;;;18.60;99.90;;;;;;5077652;28;20839;-70
2021/06/30 11:14:03;;;;;;;17.00;15.40;;;18.50;99.90;;;;;;5076861;28;20445;-69
2021/06/30 11:16:53;;;;;;;16.90;15.30;;;18.50;99.90;;;;;;5076648;28;20454;-70
2021/06/30 11:19:43;;;;;;;17.37;15.57;;;18.40;99.90;;;;;;5076530;28;20458;-70
2021/06/30 11:22:33;;;;;;;18.07;16.37;;;18.40;99.90;;;;;;5076904;28;20462;-70
2021/06/30 11:25:05;;;;;;;18.23;16.10;;;18.40;99.90;;;;;;5077910;28;20462;-70
2021/06/30 11:27:44;;;;;;;17.80;15.97;;;18.50;99.90;;;;;;5076756;28;20438;-70
2021/06/30 11:30:28;;;;;;;16.47;14.80;;;18.50;99.90;;;;;;5076664;28;20442;-69
2021/06/30 11:32:55;;;;;;;18.10;16.40;;;18.50;99.90;;;;;;5076183;28;20499;-69
2021/06/30 11:35:35;;;;;;;17.33;15.73;;;18.40;99.90;;;;;;5076108;28;20454;-69
2021/06/30 11:38:18;;;;;;;18.50;16.50;;;18.40;99.90;;;;;;5076426;28;20497;-69
2021/06/30 11:40:59;;;;;;;17.27;15.47;;;18.40;99.90;;;;;;5076097;28;20757;-69
2021/06/30 11:43:28;;;;;;;17.93;16.20;;;18.40;99.90;;;;;;5076762;28;20766;-71
2021/06/30 11:45:58;;;;;;;18.67;16.93;;;18.40;99.90;;;;;;5075960;28;20458;-70
2021/06/30 11:48:28;;;;;;;18.10;16.33;;;18.40;99.90;;;;;;5075553;28;20512;-69
2021/06/30 11:50:57;;;;;;;18.00;16.30;;;18.40;99.90;;;;;;5076511;28;20466;-69
2021/06/30 11:53:39;;;;;;;17.27;15.60;;;18.40;99.90;;;;;;5075594;28;20523;-69
2021/06/30 11:56:07;;;;;;;18.73;17.03;;;18.40;99.90;;;;;;5076186;28;20477;-69
2021/06/30 11:58:46;;;;;;;17.80;16.10;;;18.50;99.90;;;;;;5075328;28;20489;-69
2021/06/30 12:01:23;;;;;;;16.13;14.63;;;18.50;99.90;;;;;;5075564;28;20553;-69
2021/06/30 12:04:06;;;;;;;17.70;16.00;;;18.50;99.90;;;;;;5076181;28;20438;-70
2021/06/30 12:06:34;;;;;;;18.33;16.53;;;18.50;99.90;;;;;;5081343;28;20446;-70
2021/06/30 12:09:12;;;;;;;18.47;16.70;;;18.50;99.90;;;;;;5081016;28;20514;-69
2021/06/30 12:11:40;;;;;;;17.00;15.30;;;18.50;99.90;;;;;;5080554;28;20774;-70
2021/06/30 12:14:08;;;;;;;17.20;15.40;;;18.50;99.90;;;;;;5081283;28;20512;-70
2021/06/30 12:16:41;;;;;;;17.03;15.27;;;18.40;99.90;;;;;;5080053;28;20466;-69
2021/06/30 12:19:12;;;;;;;18.23;16.47;;;18.50;99.90;;;;;;5080101;28;20988;-69
2021/06/30 12:21:40;;;;;;;20.53;18.43;;;18.50;99.90;;;;;;5080982;28;20454;-69
2021/06/30 12:24:22;;;;;;;20.90;18.80;;;18.50;99.90;;;;;;5080703;28;20469;-71
2021/06/30 12:27:05;;;;;;;18.87;17.07;;;18.50;99.90;;;;;;5080316;28;20442;-70
2021/06/30 12:29:34;;;;;;;21.10;19.03;;;18.50;99.90;;;;;;5078139;28;20767;-69
2021/06/30 12:32:03;;;;;;;21.17;18.97;;;18.50;99.90;;;;;;5080840;28;20454;-69
2021/06/30 12:34:30;;;;;;;17.40;15.70;;;18.50;99.90;;;;;;5078521;28;20783;-69
2021/06/30 12:36:58;;;;;;;14.87;13.47;;;18.50;99.90;;;;;;5078117;28;20454;-70
2021/06/30 12:39:27;;;;;;;11.47;10.40;;;18.50;99.90;;;;;;5079731;28;20815;-70